In Rescue
 
Open Full Screen Window  High Contrast Mode
Wind Gusting 15 knots
10
September 19, 2019 4:20 PM CDT
Weather Information
Wind Direction
  150 °
Wind Speed
  10 kt (12 mph)
Wind Gust
  15 kt (17 mph)
Altimeter
29.96 in
Visibility
10 SM
Temperature
26° C
79° F
Dewpoint
18° C
64° F
Humidity
61%
1hr Rain Fall
00.00 in.
24hr Rain Fall
00.00 in.
Sky Condition
Clear
VFR

METAR KMDS 192120Z AUTO 15010G15KT 10SM CLR 26/18 A2996 RMK AO2

FAA Disclaimer: The data displayed is for advisory purposes only and is not to be used for flight planning or operations.